sensor_id;sensor_type;location;lat;lon;timestamp;P1;durP1;ratioP1;P2;durP2;ratioP2
49502;SDS011;35409;48.776;9.204;2024-02-26T00:00:00;1.80;;;1.27;;
49502;SDS011;35409;48.776;9.204;2024-02-26T00:02:28;2.80;;;1.33;;
49502;SDS011;35409;48.776;9.204;2024-02-26T00:04:55;1.92;;;1.40;;
49502;SDS011;35409;48.776;9.204;2024-02-26T00:07:20;1.88;;;1.25;;
49502;SDS011;35409;48.776;9.204;2024-02-26T00:09:46;5.30;;;1.15;;
49502;SDS011;35409;48.776;9.204;2024-02-26T00:12:13;1.58;;;1.35;;
49502;SDS011;35409;48.776;9.204;2024-02-26T00:14:39;3.13;;;1.33;;
49502;SDS011;35409;48.776;9.204;2024-02-26T00:17:06;1.60;;;1.13;;
49502;SDS011;35409;48.776;9.204;2024-02-26T00:19:31;2.80;;;1.40;;
49502;SDS011;35409;48.776;9.204;2024-02-26T00:22:03;3.90;;;1.70;;
49502;SDS011;35409;48.776;9.204;2024-02-26T00:24:29;1.30;;;1.20;;
49502;SDS011;35409;48.776;9.204;2024-02-26T00:26:57;2.10;;;1.35;;
49502;SDS011;35409;48.776;9.204;2024-02-26T00:29:24;1.40;;;1.10;;
49502;SDS011;35409;48.776;9.204;2024-02-26T00:31:50;1.30;;;1.20;;
49502;SDS011;35409;48.776;9.204;2024-02-26T00:34:16;2.33;;;1.13;;
49502;SDS011;35409;48.776;9.204;2024-02-26T00:36:42;2.83;;;1.30;;
49502;SDS011;35409;48.776;9.204;2024-02-26T00:39:08;3.13;;;1.00;;
49502;SDS011;35409;48.776;9.204;2024-02-26T00:41:37;1.85;;;1.27;;
49502;SDS011;35409;48.776;9.204;2024-02-26T00:44:05;1.83;;;1.17;;
49502;SDS011;35409;48.776;9.204;2024-02-26T00:46:31;1.55;;;1.00;;
49502;SDS011;35409;48.776;9.204;2024-02-26T00:49:03;2.25;;;1.25;;
49502;SDS011;35409;48.776;9.204;2024-02-26T00:51:29;2.40;;;1.30;;
49502;SDS011;35409;48.776;9.204;2024-02-26T00:53:55;2.67;;;1.23;;
49502;SDS011;35409;48.776;9.204;2024-02-26T00:56:21;1.88;;;1.20;;
49502;SDS011;35409;48.776;9.204;2024-02-26T00:58:47;1.38;;;1.10;;
49502;SDS011;35409;48.776;9.204;2024-02-26T01:01:12;1.50;;;1.10;;
49502;SDS011;35409;48.776;9.204;2024-02-26T01:03:39;2.95;;;1.15;;
49502;SDS011;35409;48.776;9.204;2024-02-26T01:06:04;6.53;;;1.80;;
49502;SDS011;35409;48.776;9.204;2024-02-26T01:08:30;2.05;;;1.58;;
49502;SDS011;35409;48.776;9.204;2024-02-26T01:10:57;1.35;;;1.10;;
49502;SDS011;35409;48.776;9.204;2024-02-26T01:13:23;2.45;;;1.23;;
49502;SDS011;35409;48.776;9.204;2024-02-26T01:15:48;2.85;;;1.40;;
49502;SDS011;35409;48.776;9.204;2024-02-26T01:18:14;2.38;;;1.45;;
49502;SDS011;35409;48.776;9.204;2024-02-26T01:20:40;1.67;;;1.27;;
49502;SDS011;35409;48.776;9.204;2024-02-26T01:23:05;1.10;;;0.98;;
49502;SDS011;35409;48.776;9.204;2024-02-26T01:25:31;1.50;;;1.40;;
49502;SDS011;35409;48.776;9.204;2024-02-26T01:27:57;1.80;;;1.23;;
49502;SDS011;35409;48.776;9.204;2024-02-26T01:30:22;2.20;;;1.40;;
49502;SDS011;35409;48.776;9.204;2024-02-26T01:32:48;2.53;;;1.17;;
49502;SDS011;35409;48.776;9.204;2024-02-26T01:35:15;1.45;;;1.35;;
49502;SDS011;35409;48.776;9.204;2024-02-26T01:37:41;1.42;;;1.13;;
49502;SDS011;35409;48.776;9.204;2024-02-26T01:40:13;1.95;;;1.20;;
49502;SDS011;35409;48.776;9.204;2024-02-26T01:42:43;1.73;;;1.02;;
49502;SDS011;35409;48.776;9.204;2024-02-26T01:45:12;1.75;;;1.00;;
49502;SDS011;35409;48.776;9.204;2024-02-26T01:47:45;1.85;;;1.30;;
49502;SDS011;35409;48.776;9.204;2024-02-26T01:50:12;2.42;;;1.60;;
49502;SDS011;35409;48.776;9.204;2024-02-26T01:52:39;1.55;;;0.95;;
49502;SDS011;35409;48.776;9.204;2024-02-26T01:55:05;1.63;;;1.25;;
49502;SDS011;35409;48.776;9.204;2024-02-26T01:57:31;2.22;;;1.15;;
49502;SDS011;35409;48.776;9.204;2024-02-26T01:59:58;1.33;;;1.17;;
49502;SDS011;35409;48.776;9.204;2024-02-26T02:02:24;3.17;;;1.20;;
49502;SDS011;35409;48.776;9.204;2024-02-26T02:04:50;2.03;;;1.17;;
49502;SDS011;35409;48.776;9.204;2024-02-26T02:07:17;2.80;;;1.42;;
49502;SDS011;35409;48.776;9.204;2024-02-26T02:09:46;2.03;;;1.27;;
49502;SDS011;35409;48.776;9.204;2024-02-26T02:12:12;3.30;;;1.40;;
49502;SDS011;35409;48.776;9.204;2024-02-26T02:14:37;2.85;;;1.60;;
49502;SDS011;35409;48.776;9.204;2024-02-26T02:17:03;1.90;;;1.30;;
49502;SDS011;35409;48.776;9.204;2024-02-26T02:19:29;3.47;;;1.92;;
49502;SDS011;35409;48.776;9.204;2024-02-26T02:21:55;2.28;;;1.80;;
49502;SDS011;35409;48.776;9.204;2024-02-26T02:24:20;2.97;;;1.60;;
49502;SDS011;35409;48.776;9.204;2024-02-26T02:26:46;1.83;;;1.42;;
49502;SDS011;35409;48.776;9.204;2024-02-26T02:29:11;3.65;;;1.50;;
49502;SDS011;35409;48.776;9.204;2024-02-26T02:31:39;2.90;;;1.58;;
49502;SDS011;35409;48.776;9.204;2024-02-26T02:34:06;1.30;;;1.20;;
49502;SDS011;35409;48.776;9.204;2024-02-26T02:36:32;2.72;;;1.60;;
49502;SDS011;35409;48.776;9.204;2024-02-26T02:39:00;2.78;;;1.88;;
49502;SDS011;35409;48.776;9.204;2024-02-26T02:41:27;2.25;;;1.80;;
49502;SDS011;35409;48.776;9.204;2024-02-26T02:43:55;1.65;;;1.27;;
49502;SDS011;35409;48.776;9.204;2024-02-26T02:46:21;2.95;;;1.80;;
49502;SDS011;35409;48.776;9.204;2024-02-26T02:48:47;3.42;;;1.35;;
49502;SDS011;35409;48.776;9.204;2024-02-26T02:51:12;2.50;;;1.50;;
49502;SDS011;35409;48.776;9.204;2024-02-26T02:53:38;3.08;;;1.55;;
49502;SDS011;35409;48.776;9.204;2024-02-26T02:56:05;3.78;;;1.25;;
49502;SDS011;35409;48.776;9.204;2024-02-26T02:58:31;2.33;;;1.40;;
49502;SDS011;35409;48.776;9.204;2024-02-26T03:00:57;2.00;;;1.25;;
49502;SDS011;35409;48.776;9.204;2024-02-26T03:03:25;3.08;;;1.40;;
49502;SDS011;35409;48.776;9.204;2024-02-26T03:05:53;3.75;;;1.50;;
49502;SDS011;35409;48.776;9.204;2024-02-26T03:08:20;2.00;;;1.25;;
49502;SDS011;35409;48.776;9.204;2024-02-26T03:10:46;1.88;;;1.38;;
49502;SDS011;35409;48.776;9.204;2024-02-26T03:13:12;3.92;;;1.25;;
49502;SDS011;35409;48.776;9.204;2024-02-26T03:15:37;2.55;;;1.33;;
49502;SDS011;35409;48.776;9.204;2024-02-26T03:18:03;2.75;;;1.20;;
49502;SDS011;35409;48.776;9.204;2024-02-26T03:20:29;1.60;;;1.48;;
49502;SDS011;35409;48.776;9.204;2024-02-26T03:22:56;2.08;;;1.30;;
49502;SDS011;35409;48.776;9.204;2024-02-26T03:25:22;1.80;;;1.40;;
49502;SDS011;35409;48.776;9.204;2024-02-26T03:27:48;2.72;;;1.20;;
49502;SDS011;35409;48.776;9.204;2024-02-26T03:30:16;1.88;;;1.50;;
49502;SDS011;35409;48.776;9.204;2024-02-26T03:32:42;1.60;;;1.20;;
49502;SDS011;35409;48.776;9.204;2024-02-26T03:35:08;2.47;;;1.10;;
49502;SDS011;35409;48.776;9.204;2024-02-26T03:37:34;2.53;;;1.50;;
49502;SDS011;35409;48.776;9.204;2024-02-26T03:40:01;2.72;;;1.50;;
49502;SDS011;35409;48.776;9.204;2024-02-26T03:42:28;2.15;;;1.48;;
49502;SDS011;35409;48.776;9.204;2024-02-26T03:44:54;2.90;;;1.48;;
49502;SDS011;35409;48.776;9.204;2024-02-26T03:47:20;2.08;;;1.30;;
49502;SDS011;35409;48.776;9.204;2024-02-26T03:49:48;2.15;;;1.42;;
49502;SDS011;35409;48.776;9.204;2024-02-26T03:52:13;2.40;;;1.45;;
49502;SDS011;35409;48.776;9.204;2024-02-26T03:54:40;5.45;;;1.40;;
49502;SDS011;35409;48.776;9.204;2024-02-26T03:57:05;4.28;;;1.80;;
49502;SDS011;35409;48.776;9.204;2024-02-26T03:59:31;3.85;;;1.65;;
49502;SDS011;35409;48.776;9.204;2024-02-26T04:01:57;2.50;;;1.55;;
49502;SDS011;35409;48.776;9.204;2024-02-26T04:04:22;2.72;;;1.60;;
49502;SDS011;35409;48.776;9.204;2024-02-26T04:06:49;2.45;;;1.70;;
49502;SDS011;35409;48.776;9.204;2024-02-26T04:09:14;2.90;;;1.75;;
49502;SDS011;35409;48.776;9.204;2024-02-26T04:11:42;3.75;;;1.88;;
49502;SDS011;35409;48.776;9.204;2024-02-26T04:14:10;3.95;;;1.58;;
49502;SDS011;35409;48.776;9.204;2024-02-26T04:16:39;4.07;;;2.10;;
49502;SDS011;35409;48.776;9.204;2024-02-26T04:19:05;4.45;;;1.95;;
49502;SDS011;35409;48.776;9.204;2024-02-26T04:21:31;4.47;;;2.05;;
49502;SDS011;35409;48.776;9.204;2024-02-26T04:23:57;5.53;;;2.00;;
49502;SDS011;35409;48.776;9.204;2024-02-26T04:26:26;3.08;;;1.80;;
49502;SDS011;35409;48.776;9.204;2024-02-26T04:28:52;7.60;;;2.03;;
49502;SDS011;35409;48.776;9.204;2024-02-26T04:31:18;4.05;;;1.45;;
49502;SDS011;35409;48.776;9.204;2024-02-26T04:33:44;7.47;;;4.65;;
49502;SDS011;35409;48.776;9.204;2024-02-26T04:36:13;7.25;;;4.65;;
49502;SDS011;35409;48.776;9.204;2024-02-26T04:38:41;6.32;;;3.58;;
49502;SDS011;35409;48.776;9.204;2024-02-26T04:41:08;7.82;;;3.50;;
49502;SDS011;35409;48.776;9.204;2024-02-26T04:43:35;5.35;;;3.10;;
49502;SDS011;35409;48.776;9.204;2024-02-26T04:46:09;8.18;;;3.30;;
49502;SDS011;35409;48.776;9.204;2024-02-26T04:48:35;4.85;;;2.70;;
49502;SDS011;35409;48.776;9.204;2024-02-26T04:51:02;4.25;;;2.22;;
49502;SDS011;35409;48.776;9.204;2024-02-26T04:53:28;4.72;;;2.20;;
49502;SDS011;35409;48.776;9.204;2024-02-26T04:55:54;2.90;;;1.90;;
49502;SDS011;35409;48.776;9.204;2024-02-26T04:58:20;4.32;;;2.15;;
49502;SDS011;35409;48.776;9.204;2024-02-26T05:00:46;3.03;;;1.60;;
49502;SDS011;35409;48.776;9.204;2024-02-26T05:03:12;3.70;;;1.52;;
49502;SDS011;35409;48.776;9.204;2024-02-26T05:05:40;3.72;;;2.08;;
49502;SDS011;35409;48.776;9.204;2024-02-26T05:08:09;6.30;;;2.35;;
49502;SDS011;35409;48.776;9.204;2024-02-26T05:10:35;3.55;;;2.03;;
49502;SDS011;35409;48.776;9.204;2024-02-26T05:13:04;3.53;;;2.00;;
49502;SDS011;35409;48.776;9.204;2024-02-26T05:15:30;3.25;;;1.50;;
49502;SDS011;35409;48.776;9.204;2024-02-26T05:17:57;2.67;;;1.30;;
49502;SDS011;35409;48.776;9.204;2024-02-26T05:20:23;1.90;;;1.17;;
49502;SDS011;35409;48.776;9.204;2024-02-26T05:22:56;3.53;;;1.55;;
49502;SDS011;35409;48.776;9.204;2024-02-26T05:25:24;3.08;;;2.22;;
49502;SDS011;35409;48.776;9.204;2024-02-26T05:27:49;3.80;;;2.53;;
49502;SDS011;35409;48.776;9.204;2024-02-26T05:30:15;3.33;;;2.13;;
49502;SDS011;35409;48.776;9.204;2024-02-26T05:32:41;4.30;;;2.65;;
49502;SDS011;35409;48.776;9.204;2024-02-26T05:35:06;4.00;;;2.55;;
49502;SDS011;35409;48.776;9.204;2024-02-26T05:37:32;4.65;;;2.35;;
49502;SDS011;35409;48.776;9.204;2024-02-26T05:39:58;3.33;;;2.20;;
49502;SDS011;35409;48.776;9.204;2024-02-26T05:42:24;3.03;;;2.05;;
49502;SDS011;35409;48.776;9.204;2024-02-26T05:44:50;2.65;;;2.00;;
49502;SDS011;35409;48.776;9.204;2024-02-26T05:47:15;2.85;;;1.85;;
49502;SDS011;35409;48.776;9.204;2024-02-26T05:49:42;3.92;;;2.47;;
49502;SDS011;35409;48.776;9.204;2024-02-26T05:52:08;2.47;;;2.08;;
49502;SDS011;35409;48.776;9.204;2024-02-26T05:54:34;2.67;;;1.70;;
49502;SDS011;35409;48.776;9.204;2024-02-26T05:57:00;3.00;;;1.50;;
49502;SDS011;35409;48.776;9.204;2024-02-26T05:59:27;3.70;;;2.40;;
49502;SDS011;35409;48.776;9.204;2024-02-26T06:01:52;1.90;;;1.65;;
49502;SDS011;35409;48.776;9.204;2024-02-26T06:04:18;3.60;;;1.98;;
49502;SDS011;35409;48.776;9.204;2024-02-26T06:06:44;2.45;;;1.98;;
49502;SDS011;35409;48.776;9.204;2024-02-26T06:09:14;3.25;;;2.00;;
49502;SDS011;35409;48.776;9.204;2024-02-26T06:11:40;2.33;;;1.98;;
49502;SDS011;35409;48.776;9.204;2024-02-26T06:14:06;3.60;;;2.03;;
49502;SDS011;35409;48.776;9.204;2024-02-26T06:16:31;3.15;;;2.22;;
49502;SDS011;35409;48.776;9.204;2024-02-26T06:18:58;6.13;;;2.40;;
49502;SDS011;35409;48.776;9.204;2024-02-26T06:21:25;4.80;;;2.10;;
49502;SDS011;35409;48.776;9.204;2024-02-26T06:23:51;3.67;;;1.85;;
49502;SDS011;35409;48.776;9.204;2024-02-26T06:26:16;3.05;;;1.70;;
49502;SDS011;35409;48.776;9.204;2024-02-26T06:28:42;3.30;;;1.95;;
49502;SDS011;35409;48.776;9.204;2024-02-26T06:31:08;2.47;;;1.60;;
49502;SDS011;35409;48.776;9.204;2024-02-26T06:33:35;3.38;;;2.88;;
49502;SDS011;35409;48.776;9.204;2024-02-26T06:36:00;3.28;;;2.25;;
49502;SDS011;35409;48.776;9.204;2024-02-26T06:38:26;3.38;;;2.08;;
49502;SDS011;35409;48.776;9.204;2024-02-26T06:40:58;4.00;;;2.35;;
49502;SDS011;35409;48.776;9.204;2024-02-26T06:43:29;4.03;;;2.28;;
49502;SDS011;35409;48.776;9.204;2024-02-26T06:45:56;7.05;;;2.63;;
49502;SDS011;35409;48.776;9.204;2024-02-26T06:48:23;6.03;;;3.33;;
49502;SDS011;35409;48.776;9.204;2024-02-26T06:50:49;7.32;;;3.50;;
49502;SDS011;35409;48.776;9.204;2024-02-26T06:53:15;5.45;;;3.15;;
49502;SDS011;35409;48.776;9.204;2024-02-26T06:55:41;5.20;;;2.92;;
49502;SDS011;35409;48.776;9.204;2024-02-26T06:58:08;3.95;;;3.13;;
49502;SDS011;35409;48.776;9.204;2024-02-26T07:00:34;4.88;;;2.95;;
49502;SDS011;35409;48.776;9.204;2024-02-26T07:03:00;4.90;;;3.08;;
49502;SDS011;35409;48.776;9.204;2024-02-26T07:05:26;3.38;;;2.08;;
49502;SDS011;35409;48.776;9.204;2024-02-26T07:07:52;4.47;;;1.90;;
49502;SDS011;35409;48.776;9.204;2024-02-26T07:10:19;3.53;;;2.22;;
49502;SDS011;35409;48.776;9.204;2024-02-26T07:12:46;3.83;;;2.20;;
49502;SDS011;35409;48.776;9.204;2024-02-26T07:15:13;2.95;;;1.80;;
49502;SDS011;35409;48.776;9.204;2024-02-26T07:17:39;3.08;;;2.10;;
49502;SDS011;35409;48.776;9.204;2024-02-26T07:20:07;3.83;;;2.08;;
49502;SDS011;35409;48.776;9.204;2024-02-26T07:22:35;2.15;;;1.80;;
49502;SDS011;35409;48.776;9.204;2024-02-26T07:25:01;3.00;;;1.90;;
49502;SDS011;35409;48.776;9.204;2024-02-26T07:27:27;5.00;;;2.60;;
49502;SDS011;35409;48.776;9.204;2024-02-26T07:29:52;3.40;;;2.17;;
49502;SDS011;35409;48.776;9.204;2024-02-26T07:32:18;3.75;;;2.25;;
49502;SDS011;35409;48.776;9.204;2024-02-26T07:34:44;4.55;;;2.65;;
49502;SDS011;35409;48.776;9.204;2024-02-26T07:37:13;4.78;;;2.17;;
49502;SDS011;35409;48.776;9.204;2024-02-26T07:39:38;2.88;;;2.20;;
49502;SDS011;35409;48.776;9.204;2024-02-26T07:42:04;3.95;;;2.45;;
49502;SDS011;35409;48.776;9.204;2024-02-26T07:44:30;4.30;;;2.50;;
49502;SDS011;35409;48.776;9.204;2024-02-26T07:46:56;5.28;;;2.67;;
49502;SDS011;35409;48.776;9.204;2024-02-26T07:49:21;3.67;;;2.50;;
49502;SDS011;35409;48.776;9.204;2024-02-26T07:51:47;4.55;;;2.60;;
49502;SDS011;35409;48.776;9.204;2024-02-26T07:54:12;3.45;;;1.90;;
49502;SDS011;35409;48.776;9.204;2024-02-26T07:56:39;4.95;;;2.05;;
49502;SDS011;35409;48.776;9.204;2024-02-26T07:59:05;4.53;;;1.95;;
49502;SDS011;35409;48.776;9.204;2024-02-26T08:01:32;2.53;;;2.10;;
49502;SDS011;35409;48.776;9.204;2024-02-26T08:03:58;2.72;;;1.65;;
49502;SDS011;35409;48.776;9.204;2024-02-26T08:06:24;1.98;;;1.45;;
49502;SDS011;35409;48.776;9.204;2024-02-26T08:08:50;2.40;;;1.50;;
49502;SDS011;35409;48.776;9.204;2024-02-26T08:11:16;3.38;;;1.88;;
49502;SDS011;35409;48.776;9.204;2024-02-26T08:13:42;4.38;;;2.90;;
49502;SDS011;35409;48.776;9.204;2024-02-26T08:16:07;5.28;;;2.88;;
49502;SDS011;35409;48.776;9.204;2024-02-26T08:18:33;8.63;;;3.63;;
49502;SDS011;35409;48.776;9.204;2024-02-26T08:21:00;6.60;;;3.83;;
49502;SDS011;35409;48.776;9.204;2024-02-26T08:23:26;8.20;;;3.67;;
49502;SDS011;35409;48.776;9.204;2024-02-26T08:25:52;6.68;;;3.22;;
49502;SDS011;35409;48.776;9.204;2024-02-26T08:28:19;6.35;;;3.47;;
49502;SDS011;35409;48.776;9.204;2024-02-26T08:30:44;12.30;;;3.58;;
49502;SDS011;35409;48.776;9.204;2024-02-26T08:33:10;2.85;;;1.90;;
49502;SDS011;35409;48.776;9.204;2024-02-26T08:35:40;4.40;;;2.28;;
49502;SDS011;35409;48.776;9.204;2024-02-26T08:38:06;3.60;;;1.52;;
49502;SDS011;35409;48.776;9.204;2024-02-26T08:40:32;2.10;;;1.88;;
49502;SDS011;35409;48.776;9.204;2024-02-26T08:42:57;6.03;;;1.98;;
49502;SDS011;35409;48.776;9.204;2024-02-26T08:45:26;5.63;;;2.30;;
49502;SDS011;35409;48.776;9.204;2024-02-26T08:47:52;3.35;;;2.10;;
49502;SDS011;35409;48.776;9.204;2024-02-26T08:50:18;4.03;;;2.10;;
49502;SDS011;35409;48.776;9.204;2024-02-26T08:52:43;4.43;;;1.80;;
49502;SDS011;35409;48.776;9.204;2024-02-26T08:55:13;2.92;;;1.85;;
49502;SDS011;35409;48.776;9.204;2024-02-26T08:57:39;3.33;;;2.00;;
49502;SDS011;35409;48.776;9.204;2024-02-26T09:00:05;2.55;;;1.80;;
49502;SDS011;35409;48.776;9.204;2024-02-26T09:02:32;3.65;;;1.80;;
49502;SDS011;35409;48.776;9.204;2024-02-26T09:04:58;7.45;;;2.92;;
49502;SDS011;35409;48.776;9.204;2024-02-26T09:07:25;12.25;;;3.90;;
49502;SDS011;35409;48.776;9.204;2024-02-26T09:09:51;10.45;;;3.70;;
49502;SDS011;35409;48.776;9.204;2024-02-26T09:12:16;7.68;;;3.13;;
49502;SDS011;35409;48.776;9.204;2024-02-26T09:14:42;6.25;;;3.08;;
49502;SDS011;35409;48.776;9.204;2024-02-26T09:17:08;7.57;;;2.60;;
49502;SDS011;35409;48.776;9.204;2024-02-26T09:19:33;6.65;;;3.10;;
49502;SDS011;35409;48.776;9.204;2024-02-26T09:21:59;6.82;;;3.47;;
49502;SDS011;35409;48.776;9.204;2024-02-26T09:24:26;4.25;;;2.70;;
49502;SDS011;35409;48.776;9.204;2024-02-26T09:26:52;5.93;;;3.63;;
49502;SDS011;35409;48.776;9.204;2024-02-26T09:29:17;5.38;;;2.80;;
49502;SDS011;35409;48.776;9.204;2024-02-26T09:31:43;8.63;;;3.13;;
49502;SDS011;35409;48.776;9.204;2024-02-26T09:34:12;5.03;;;2.97;;
49502;SDS011;35409;48.776;9.204;2024-02-26T09:36:38;5.00;;;3.10;;
49502;SDS011;35409;48.776;9.204;2024-02-26T09:39:05;4.60;;;3.15;;
49502;SDS011;35409;48.776;9.204;2024-02-26T09:41:36;5.97;;;3.05;;
49502;SDS011;35409;48.776;9.204;2024-02-26T09:44:09;6.60;;;3.38;;
49502;SDS011;35409;48.776;9.204;2024-02-26T09:46:36;3.85;;;2.75;;
49502;SDS011;35409;48.776;9.204;2024-02-26T09:49:02;4.00;;;2.78;;
49502;SDS011;35409;48.776;9.204;2024-02-26T09:51:30;3.92;;;2.63;;
49502;SDS011;35409;48.776;9.204;2024-02-26T09:53:57;4.22;;;2.75;;
49502;SDS011;35409;48.776;9.204;2024-02-26T09:56:26;4.90;;;3.13;;
49502;SDS011;35409;48.776;9.204;2024-02-26T09:58:57;3.78;;;3.08;;
49502;SDS011;35409;48.776;9.204;2024-02-26T10:01:28;2.70;;;2.10;;
49502;SDS011;35409;48.776;9.204;2024-02-26T10:04:01;3.85;;;2.58;;
49502;SDS011;35409;48.776;9.204;2024-02-26T10:06:29;11.85;;;2.90;;
49502;SDS011;35409;48.776;9.204;2024-02-26T10:08:58;6.35;;;2.90;;
49502;SDS011;35409;48.776;9.204;2024-02-26T10:11:25;5.32;;;3.03;;
49502;SDS011;35409;48.776;9.204;2024-02-26T10:13:58;11.10;;;3.60;;
49502;SDS011;35409;48.776;9.204;2024-02-26T10:16:26;6.40;;;3.72;;
49502;SDS011;35409;48.776;9.204;2024-02-26T10:18:54;7.32;;;2.90;;
49502;SDS011;35409;48.776;9.204;2024-02-26T10:21:20;7.85;;;3.55;;
49502;SDS011;35409;48.776;9.204;2024-02-26T10:23:48;6.55;;;3.50;;
49502;SDS011;35409;48.776;9.204;2024-02-26T10:26:17;12.80;;;4.43;;
49502;SDS011;35409;48.776;9.204;2024-02-26T10:28:44;9.43;;;4.30;;
49502;SDS011;35409;48.776;9.204;2024-02-26T10:31:11;10.40;;;4.35;;
49502;SDS011;35409;48.776;9.204;2024-02-26T10:33:38;11.05;;;4.38;;
49502;SDS011;35409;48.776;9.204;2024-02-26T10:36:05;9.55;;;4.80;;
49502;SDS011;35409;48.776;9.204;2024-02-26T10:38:34;11.20;;;4.28;;
49502;SDS011;35409;48.776;9.204;2024-02-26T10:41:01;7.97;;;4.70;;
49502;SDS011;35409;48.776;9.204;2024-02-26T10:43:28;9.35;;;4.13;;
49502;SDS011;35409;48.776;9.204;2024-02-26T10:45:55;10.63;;;3.92;;
49502;SDS011;35409;48.776;9.204;2024-02-26T10:48:22;7.63;;;3.05;;
49502;SDS011;35409;48.776;9.204;2024-02-26T10:50:49;5.25;;;2.58;;
49502;SDS011;35409;48.776;9.204;2024-02-26T10:53:21;5.82;;;3.00;;
49502;SDS011;35409;48.776;9.204;2024-02-26T10:55:49;4.95;;;2.50;;
49502;SDS011;35409;48.776;9.204;2024-02-26T10:58:21;4.43;;;2.55;;
49502;SDS011;35409;48.776;9.204;2024-02-26T11:00:53;5.95;;;2.50;;
49502;SDS011;35409;48.776;9.204;2024-02-26T11:03:20;3.03;;;2.15;;
49502;SDS011;35409;48.776;9.204;2024-02-26T11:05:47;4.18;;;2.15;;
49502;SDS011;35409;48.776;9.204;2024-02-26T11:08:20;4.85;;;2.38;;
49502;SDS011;35409;48.776;9.204;2024-02-26T11:10:47;5.22;;;2.70;;
49502;SDS011;35409;48.776;9.204;2024-02-26T11:13:14;7.85;;;2.50;;
49502;SDS011;35409;48.776;9.204;2024-02-26T11:15:48;7.40;;;3.00;;
49502;SDS011;35409;48.776;9.204;2024-02-26T11:18:15;7.00;;;2.70;;
49502;SDS011;35409;48.776;9.204;2024-02-26T11:20:44;9.43;;;2.92;;
49502;SDS011;35409;48.776;9.204;2024-02-26T11:23:10;8.25;;;2.88;;
49502;SDS011;35409;48.776;9.204;2024-02-26T11:25:37;5.00;;;2.30;;
49502;SDS011;35409;48.776;9.204;2024-02-26T11:28:09;7.07;;;2.45;;
49502;SDS011;35409;48.776;9.204;2024-02-26T11:30:38;5.13;;;2.30;;
49502;SDS011;35409;48.776;9.204;2024-02-26T11:33:08;4.55;;;2.50;;
49502;SDS011;35409;48.776;9.204;2024-02-26T11:35:37;4.80;;;2.72;;
49502;SDS011;35409;48.776;9.204;2024-02-26T11:38:04;6.30;;;2.83;;
49502;SDS011;35409;48.776;9.204;2024-02-26T11:40:33;6.10;;;2.97;;
49502;SDS011;35409;48.776;9.204;2024-02-26T11:43:04;6.13;;;3.00;;
49502;SDS011;35409;48.776;9.204;2024-02-26T11:48:11;7.78;;;3.00;;
49502;SDS011;35409;48.776;9.204;2024-02-26T11:50:41;8.15;;;3.65;;
49502;SDS011;35409;48.776;9.204;2024-02-26T11:56:34;4.93;;;2.97;;
49502;SDS011;35409;48.776;9.204;2024-02-26T11:58:44;4.47;;;2.63;;
49502;SDS011;35409;48.776;9.204;2024-02-26T12:07:01;4.10;;;2.90;;
49502;SDS011;35409;48.776;9.204;2024-02-26T12:12:01;5.07;;;2.40;;
49502;SDS011;35409;48.776;9.204;2024-02-26T12:14:29;9.57;;;2.22;;
49502;SDS011;35409;48.776;9.204;2024-02-26T12:16:55;3.35;;;2.10;;
49502;SDS011;35409;48.776;9.204;2024-02-26T12:19:21;5.20;;;2.55;;
49502;SDS011;35409;48.776;9.204;2024-02-26T12:21:51;6.10;;;2.60;;
49502;SDS011;35409;48.776;9.204;2024-02-26T12:24:20;6.07;;;3.05;;
49502;SDS011;35409;48.776;9.204;2024-02-26T12:26:47;8.43;;;3.30;;
49502;SDS011;35409;48.776;9.204;2024-02-26T12:29:14;4.38;;;2.80;;
49502;SDS011;35409;48.776;9.204;2024-02-26T12:31:42;8.98;;;3.55;;
49502;SDS011;35409;48.776;9.204;2024-02-26T12:34:09;5.80;;;2.53;;
49502;SDS011;35409;48.776;9.204;2024-02-26T12:36:35;7.40;;;2.80;;
49502;SDS011;35409;48.776;9.204;2024-02-26T12:39:02;7.25;;;3.17;;
49502;SDS011;35409;48.776;9.204;2024-02-26T12:41:31;4.80;;;2.75;;
49502;SDS011;35409;48.776;9.204;2024-02-26T12:43:57;5.32;;;2.65;;
49502;SDS011;35409;48.776;9.204;2024-02-26T12:46:24;4.53;;;2.58;;
49502;SDS011;35409;48.776;9.204;2024-02-26T12:48:49;5.30;;;2.58;;
49502;SDS011;35409;48.776;9.204;2024-02-26T12:51:16;5.00;;;2.58;;
49502;SDS011;35409;48.776;9.204;2024-02-26T12:53:44;4.65;;;2.45;;
49502;SDS011;35409;48.776;9.204;2024-02-26T12:56:11;7.90;;;2.72;;
49502;SDS011;35409;48.776;9.204;2024-02-26T12:58:39;9.18;;;3.20;;
49502;SDS011;35409;48.776;9.204;2024-02-26T13:01:06;5.30;;;2.67;;
49502;SDS011;35409;48.776;9.204;2024-02-26T13:03:35;6.65;;;2.50;;
49502;SDS011;35409;48.776;9.204;2024-02-26T13:06:02;5.03;;;2.20;;
49502;SDS011;35409;48.776;9.204;2024-02-26T13:08:29;4.82;;;2.25;;
49502;SDS011;35409;48.776;9.204;2024-02-26T13:10:56;6.43;;;2.20;;
49502;SDS011;35409;48.776;9.204;2024-02-26T13:13:24;5.35;;;2.00;;
49502;SDS011;35409;48.776;9.204;2024-02-26T13:16:05;1.98;;;1.77;;
49502;SDS011;35409;48.776;9.204;2024-02-26T13:18:33;4.13;;;1.90;;
49502;SDS011;35409;48.776;9.204;2024-02-26T13:21:09;4.07;;;1.88;;
49502;SDS011;35409;48.776;9.204;2024-02-26T13:23:41;2.10;;;1.25;;
49502;SDS011;35409;48.776;9.204;2024-02-26T13:26:07;2.80;;;1.50;;
49502;SDS011;35409;48.776;9.204;2024-02-26T13:28:36;1.58;;;1.10;;
49502;SDS011;35409;48.776;9.204;2024-02-26T13:31:02;2.15;;;0.80;;
49502;SDS011;35409;48.776;9.204;2024-02-26T13:33:30;1.75;;;0.90;;
49502;SDS011;35409;48.776;9.204;2024-02-26T13:35:57;1.10;;;1.00;;
49502;SDS011;35409;48.776;9.204;2024-02-26T13:38:24;2.55;;;0.60;;
49502;SDS011;35409;48.776;9.204;2024-02-26T13:40:50;1.30;;;0.68;;
49502;SDS011;35409;48.776;9.204;2024-02-26T13:43:16;2.13;;;0.68;;
49502;SDS011;35409;48.776;9.204;2024-02-26T13:45:44;0.93;;;0.60;;
49502;SDS011;35409;48.776;9.204;2024-02-26T13:48:11;1.42;;;1.00;;
49502;SDS011;35409;48.776;9.204;2024-02-26T13:50:39;2.28;;;0.88;;
49502;SDS011;35409;48.776;9.204;2024-02-26T13:55:33;1.33;;;1.00;;
49502;SDS011;35409;48.776;9.204;2024-02-26T13:57:59;1.95;;;1.00;;
49502;SDS011;35409;48.776;9.204;2024-02-26T14:00:29;1.38;;;0.70;;
49502;SDS011;35409;48.776;9.204;2024-02-26T14:02:59;3.80;;;0.70;;
49502;SDS011;35409;48.776;9.204;2024-02-26T14:05:25;0.77;;;0.77;;
49502;SDS011;35409;48.776;9.204;2024-02-26T14:07:53;0.98;;;0.63;;
49502;SDS011;35409;48.776;9.204;2024-02-26T14:10:19;1.02;;;0.68;;
49502;SDS011;35409;48.776;9.204;2024-02-26T14:12:45;0.90;;;0.40;;
49502;SDS011;35409;48.776;9.204;2024-02-26T14:15:11;0.73;;;0.40;;
49502;SDS011;35409;48.776;9.204;2024-02-26T14:17:37;0.30;;;0.28;;
49502;SDS011;35409;48.776;9.204;2024-02-26T14:20:03;1.13;;;0.57;;
49502;SDS011;35409;48.776;9.204;2024-02-26T14:22:29;0.90;;;0.40;;
49502;SDS011;35409;48.776;9.204;2024-02-26T14:24:57;1.75;;;0.40;;
49502;SDS011;35409;48.776;9.204;2024-02-26T14:27:24;0.85;;;0.30;;
49502;SDS011;35409;48.776;9.204;2024-02-26T14:29:50;2.42;;;0.40;;
49502;SDS011;35409;48.776;9.204;2024-02-26T14:32:16;0.50;;;0.30;;
49502;SDS011;35409;48.776;9.204;2024-02-26T14:34:42;0.60;;;0.50;;
49502;SDS011;35409;48.776;9.204;2024-02-26T14:37:09;1.05;;;0.60;;
49502;SDS011;35409;48.776;9.204;2024-02-26T14:39:36;0.35;;;0.30;;
49502;SDS011;35409;48.776;9.204;2024-02-26T14:42:03;0.85;;;0.65;;
49502;SDS011;35409;48.776;9.204;2024-02-26T14:44:29;1.02;;;0.40;;
49502;SDS011;35409;48.776;9.204;2024-02-26T14:46:56;2.42;;;0.43;;
49502;SDS011;35409;48.776;9.204;2024-02-26T14:49:23;0.88;;;0.40;;
49502;SDS011;35409;48.776;9.204;2024-02-26T14:51:48;1.00;;;0.60;;
49502;SDS011;35409;48.776;9.204;2024-02-26T14:54:14;0.40;;;0.40;;
49502;SDS011;35409;48.776;9.204;2024-02-26T14:56:41;0.68;;;0.68;;
49502;SDS011;35409;48.776;9.204;2024-02-26T14:59:07;1.02;;;0.70;;
49502;SDS011;35409;48.776;9.204;2024-02-26T15:01:32;3.95;;;1.00;;